Time;durP1;ratioP1;P1;durP2;ratioP2;P2;SDS_P1;SDS_P2;PMS_P1;PMS_P2;Temp;Humidity;BMP_temperature;BMP_pressure;BME280_temperature;BME280_humidity;BME280_pressure;Samples;Min_cycle;Max_cycle;Signal;HPM_P1;HPM_P2
2021/06/24 00:01:12;;;;;;;3.30;1.65;;;22.00;60.60;;;;;;3137025;28;20482;-78
2021/06/24 00:02:44;;;;;;;4.28;1.63;;;22.00;60.60;;;;;;3138651;28;20507;-78
2021/06/24 00:04:15;;;;;;;4.63;1.95;;;22.00;61.30;;;;;;3139815;28;20040;-78
2021/06/24 00:05:47;;;;;;;5.10;1.90;;;22.00;60.70;;;;;;3150691;28;20068;-78
2021/06/24 00:07:19;;;;;;;3.72;1.60;;;22.00;60.70;;;;;;3150957;28;20506;-78
2021/06/24 00:08:49;;;;;;;4.57;1.77;;;22.00;60.60;;;;;;3150706;28;20083;-78
2021/06/24 00:10:21;;;;;;;3.53;1.52;;;22.00;60.50;;;;;;3150970;28;20045;-78
2021/06/24 00:11:51;;;;;;;2.45;1.67;;;21.90;60.50;;;;;;3150203;28;20056;-78
2021/06/24 00:13:23;;;;;;;3.20;1.60;;;22.00;60.70;;;;;;3147217;28;20529;-78
2021/06/24 00:14:55;;;;;;;8.00;2.10;;;22.00;60.90;;;;;;3139290;28;20060;-78
2021/06/24 00:16:28;;;;;;;7.43;1.65;;;21.90;61.00;;;;;;3145922;28;20415;-78
2021/06/24 00:18:00;;;;;;;5.32;1.80;;;22.00;61.10;;;;;;3150404;28;20049;-78
2021/06/24 00:19:31;;;;;;;5.93;1.65;;;22.00;61.10;;;;;;3150884;28;20409;-78
2021/06/24 00:21:02;;;;;;;7.63;1.95;;;22.00;61.00;;;;;;3151094;28;20048;-78
2021/06/24 00:22:34;;;;;;;2.42;1.60;;;22.00;61.00;;;;;;3150794;28;20048;-78
2021/06/24 00:24:06;;;;;;;5.50;1.70;;;21.90;60.90;;;;;;3150887;28;20056;-78
2021/06/24 00:25:37;;;;;;;3.88;1.85;;;21.90;61.00;;;;;;3150671;28;20418;-78
2021/06/24 00:27:09;;;;;;;3.13;1.60;;;21.90;61.00;;;;;;3151151;28;20410;-78
2021/06/24 00:28:41;;;;;;;4.10;1.77;;;21.90;61.00;;;;;;3150946;28;20048;-78
2021/06/24 00:30:12;;;;;;;3.33;1.60;;;22.00;61.10;;;;;;3145720;28;20044;-78
2021/06/24 00:31:45;;;;;;;4.25;2.10;;;21.90;60.90;;;;;;3139014;28;20174;-78
2021/06/24 00:33:17;;;;;;;;;;;21.90;60.80;;;;;;3151498;28;20052;-78
2021/06/24 00:34:48;;;;;;;5.70;2.00;;;21.90;61.00;;;;;;3150238;28;19920;-78
2021/06/24 00:36:20;;;;;;;4.88;1.80;;;21.90;61.00;;;;;;3142836;28;20048;-78
2021/06/24 00:37:52;;;;;;;2.72;1.70;;;21.90;61.00;;;;;;3138472;28;20064;-78
2021/06/24 00:39:23;;;;;;;5.75;1.80;;;21.90;61.00;;;;;;3137001;28;20052;-78
2021/06/24 00:40:55;;;;;;;2.80;1.58;;;21.90;61.00;;;;;;3137335;28;20049;-78
2021/06/24 00:42:26;;;;;;;6.05;1.88;;;21.90;61.10;;;;;;3137336;28;20105;-78
2021/06/24 00:43:58;;;;;;;3.20;1.60;;;21.90;61.20;;;;;;3145263;28;20521;-78
2021/06/24 00:45:29;;;;;;;3.45;1.65;;;21.90;61.30;;;;;;3145563;28;20048;-78
2021/06/24 00:47:03;;;;;;;5.28;1.70;;;21.90;61.30;;;;;;3138486;28;20048;-78
2021/06/24 00:48:34;;;;;;;5.70;1.60;;;21.90;61.30;;;;;;3149884;28;20051;-78
2021/06/24 00:50:06;;;;;;;5.57;1.90;;;21.90;61.10;;;;;;3150176;28;20044;-78
2021/06/24 00:51:38;;;;;;;4.55;1.70;;;21.90;61.30;;;;;;3150063;28;20058;-78
2021/06/24 00:53:09;;;;;;;2.78;1.55;;;21.90;61.30;;;;;;3149922;28;20051;-78
2021/06/24 00:54:40;;;;;;;2.95;1.60;;;21.90;61.20;;;;;;3150227;28;20395;-78
2021/06/24 00:56:12;;;;;;;4.10;1.58;;;21.90;61.20;;;;;;3149746;28;20048;-78
2021/06/24 00:57:44;;;;;;;4.45;1.73;;;21.90;61.30;;;;;;3149714;28;20491;-78
2021/06/24 00:59:15;;;;;;;2.88;1.65;;;21.90;61.30;;;;;;3149705;28;20048;-78
2021/06/24 01:00:47;;;;;;;4.07;1.42;;;21.90;61.30;;;;;;3150612;28;20036;-78
2021/06/24 01:02:20;;;;;;;2.25;1.45;;;21.90;61.30;;;;;;3150237;28;20513;-78
2021/06/24 01:03:51;;;;;;;;;;;21.90;61.30;;;;;;3140976;28;20048;-79
2021/06/24 01:05:22;;;;;;;3.47;1.80;;;21.90;61.30;;;;;;3150510;28;19916;-78
2021/06/24 01:06:54;;;;;;;2.72;1.65;;;21.90;61.40;;;;;;3150409;28;20044;-78
2021/06/24 01:08:29;;;;;;;4.57;1.50;;;21.80;61.30;;;;;;3149291;28;20056;-78
2021/06/24 01:10:01;;;;;;;3.42;1.80;;;21.90;61.40;;;;;;3150137;28;20487;-78
2021/06/24 01:11:31;;;;;;;3.53;1.75;;;21.90;61.30;;;;;;3150032;28;20059;-78
2021/06/24 01:13:03;;;;;;;4.07;1.95;;;21.80;61.30;;;;;;3149859;28;20052;-78
2021/06/24 01:14:35;;;;;;;4.07;1.70;;;21.90;61.40;;;;;;3151663;28;20055;-78
2021/06/24 01:16:07;;;;;;;7.80;1.75;;;21.90;61.40;;;;;;3151169;28;20114;-78
2021/06/24 01:17:40;;;;;;;8.98;2.25;;;21.90;61.40;;;;;;3145137;28;20044;-78
2021/06/24 01:19:12;;;;;;;3.67;1.63;;;21.80;61.30;;;;;;3151613;28;20048;-78
2021/06/24 01:20:44;;;;;;;3.97;1.33;;;21.90;61.40;;;;;;3151196;28;20467;-78
2021/06/24 01:22:16;;;;;;;4.13;1.83;;;21.80;61.30;;;;;;3150597;28;20055;-78
2021/06/24 01:23:48;;;;;;;5.20;1.77;;;21.90;61.40;;;;;;3150413;28;20482;-78
2021/06/24 01:25:19;;;;;;;5.27;1.83;;;21.90;61.70;;;;;;3151034;28;20053;-78
2021/06/24 01:26:50;;;;;;;2.88;1.50;;;21.90;61.70;;;;;;3149704;28;20430;-78
2021/06/24 01:28:22;;;;;;;4.95;1.52;;;21.80;61.60;;;;;;3150002;28;20049;-78
2021/06/24 01:29:53;;;;;;;3.17;1.70;;;21.80;61.60;;;;;;3150945;28;20052;-79
2021/06/24 01:31:25;;;;;;;3.85;1.67;;;21.90;61.50;;;;;;3141729;28;20049;-78
2021/06/24 01:32:57;;;;;;;10.63;2.10;;;21.80;61.80;;;;;;3138807;28;20049;-78
2021/06/24 01:34:28;;;;;;;8.13;2.00;;;21.90;61.90;;;;;;3150730;28;20051;-79
2021/06/24 01:36:01;;;;;;;3.13;1.48;;;21.80;61.80;;;;;;3150262;28;20060;-78
2021/06/24 01:37:33;;;;;;;5.70;1.80;;;21.80;61.70;;;;;;3150799;28;20464;-79
2021/06/24 01:39:07;;;;;;;5.25;1.73;;;21.80;61.30;;;;;;3175005;22;20435;-73
2021/06/24 01:40:39;;;;;;;6.70;2.00;;;21.80;61.80;;;;;;3148286;28;20056;-73
2021/06/24 01:42:12;;;;;;;6.53;1.63;;;21.80;61.50;;;;;;3153757;28;20432;-73
2021/06/24 01:43:45;;;;;;;3.05;1.90;;;21.80;61.70;;;;;;3159626;28;20385;-73
2021/06/24 01:45:17;;;;;;;3.75;1.70;;;21.80;61.70;;;;;;3160024;28;20044;-72
2021/06/24 01:46:48;;;;;;;6.93;1.67;;;21.80;61.90;;;;;;3155451;28;20048;-72
2021/06/24 01:48:20;;;;;;;3.55;1.73;;;21.80;62.10;;;;;;3157261;28;20051;-73
2021/06/24 01:49:52;;;;;;;4.13;1.88;;;21.80;61.80;;;;;;3160702;28;20109;-73
2021/06/24 01:51:23;;;;;;;2.65;1.80;;;21.70;61.80;;;;;;3160332;28;20044;-73
2021/06/24 01:52:54;;;;;;;4.80;1.92;;;21.80;62.00;;;;;;3160602;28;20178;-73
2021/06/24 01:54:27;;;;;;;4.32;2.00;;;21.80;61.80;;;;;;3160426;28;20048;-73
2021/06/24 01:55:59;;;;;;;;;;;21.70;61.90;;;;;;3160380;28;20059;-73
2021/06/24 01:57:30;;;;;;;3.72;1.55;;;21.70;61.90;;;;;;3160385;28;20283;-72
2021/06/24 01:59:01;;;;;;;2.97;1.77;;;21.70;62.00;;;;;;3160719;28;20050;-72
2021/06/24 02:00:32;;;;;;;2.65;1.65;;;21.70;62.00;;;;;;3160209;28;20055;-72
2021/06/24 02:02:04;;;;;;;3.03;1.77;;;21.70;62.00;;;;;;3160245;28;20480;-73
2021/06/24 02:03:36;;;;;;;4.43;1.58;;;21.70;62.00;;;;;;3160179;28;20055;-73
2021/06/24 02:05:08;;;;;;;3.15;1.60;;;21.70;62.00;;;;;;3147670;28;20044;-73
2021/06/24 02:06:40;;;;;;;5.63;2.42;;;21.70;62.10;;;;;;3156752;28;20524;-73
2021/06/24 02:08:12;;;;;;;4.18;1.73;;;21.70;62.00;;;;;;3160354;28;20048;-73
2021/06/24 02:09:45;;;;;;;3.25;1.80;;;21.70;62.20;;;;;;3160490;28;20059;-73
2021/06/24 02:11:17;;;;;;;;;;;21.70;62.20;;;;;;3160994;28;20051;-73
2021/06/24 02:12:48;;;;;;;2.38;1.50;;;21.70;62.20;;;;;;3160338;28;19927;-73
2021/06/24 02:14:20;;;;;;;2.20;1.73;;;21.70;62.70;;;;;;3160047;28;20063;-73
2021/06/24 02:15:50;;;;;;;4.53;1.70;;;21.70;62.10;;;;;;3160092;28;20070;-72
2021/06/24 02:17:22;;;;;;;3.67;1.60;;;21.70;62.10;;;;;;3160336;28;20040;-73
2021/06/24 02:18:53;;;;;;;3.00;1.70;;;21.70;61.90;;;;;;3160032;28;20526;-73
2021/06/24 02:20:24;;;;;;;4.15;1.75;;;21.70;62.10;;;;;;3160016;28;20044;-73
2021/06/24 02:21:56;;;;;;;2.97;2.08;;;21.70;62.00;;;;;;3160377;28;20061;-73
2021/06/24 02:23:28;;;;;;;4.25;1.80;;;21.70;62.10;;;;;;3160442;28;20254;-73
2021/06/24 02:25:00;;;;;;;2.25;1.70;;;21.70;62.40;;;;;;3159190;28;20044;-73
2021/06/24 02:26:31;;;;;;;3.37;1.80;;;21.80;62.40;;;;;;3160095;28;20430;-73
2021/06/24 02:28:03;;;;;;;4.20;1.90;;;21.70;62.20;;;;;;3159959;28;20767;-73
2021/06/24 02:29:34;;;;;;;5.03;1.70;;;21.80;62.20;;;;;;3159896;28;20071;-73
2021/06/24 02:31:06;;;;;;;2.97;1.90;;;21.70;62.10;;;;;;3159874;28;20055;-73
2021/06/24 02:32:38;;;;;;;3.25;1.80;;;21.70;62.20;;;;;;3160005;28;20052;-73
2021/06/24 02:34:09;;;;;;;4.88;2.03;;;21.80;62.10;;;;;;3160183;28;20044;-72
2021/06/24 02:35:41;;;;;;;3.40;1.63;;;21.80;62.20;;;;;;3159532;28;20048;-72
2021/06/24 02:37:12;;;;;;;3.58;1.92;;;21.70;62.10;;;;;;3160189;28;20485;-73
2021/06/24 02:38:44;;;;;;;3.65;1.60;;;21.70;62.40;;;;;;3160164;28;20507;-73
2021/06/24 02:40:17;;;;;;;2.45;1.73;;;21.70;62.40;;;;;;3159860;28;20052;-73
2021/06/24 02:41:49;;;;;;;6.30;1.90;;;21.80;62.50;;;;;;3159506;28;20515;-73
2021/06/24 02:43:19;;;;;;;2.40;1.88;;;21.80;62.60;;;;;;3159899;28;20549;-73
2021/06/24 02:44:51;;;;;;;3.78;2.10;;;21.80;62.40;;;;;;3160230;28;20089;-73
2021/06/24 02:46:22;;;;;;;4.82;1.98;;;21.80;62.40;;;;;;3159389;28;20048;-73
2021/06/24 02:47:54;;;;;;;5.38;1.60;;;21.80;62.40;;;;;;3160094;28;20044;-74
2021/06/24 02:49:26;;;;;;;3.33;1.70;;;21.80;62.40;;;;;;3159330;28;20048;-72
2021/06/24 02:50:57;;;;;;;3.10;1.70;;;21.80;62.40;;;;;;3147500;28;20100;-72
2021/06/24 02:52:30;;;;;;;7.22;1.67;;;21.80;62.40;;;;;;3157245;28;20390;-73
2021/06/24 02:54:02;;;;;;;4.35;1.80;;;21.80;62.40;;;;;;3160290;28;20323;-73
2021/06/24 02:55:35;;;;;;;2.65;1.67;;;21.80;62.40;;;;;;3150954;28;20047;-73
2021/06/24 02:57:07;;;;;;;;;;;21.80;62.30;;;;;;3147760;28;20068;-72
2021/06/24 02:58:38;;;;;;;2.65;1.80;;;21.80;62.20;;;;;;3147090;28;19931;-72
2021/06/24 03:00:10;;;;;;;3.60;1.50;;;21.80;62.30;;;;;;3153840;28;20047;-73
2021/06/24 03:01:42;;;;;;;2.50;1.88;;;21.80;62.20;;;;;;3159438;28;20446;-73
2021/06/24 03:03:12;;;;;;;2.53;1.73;;;21.80;62.90;;;;;;3155786;28;20048;-73
2021/06/24 03:04:45;;;;;;;3.78;1.85;;;21.80;62.20;;;;;;3148693;28;20047;-72
2021/06/24 03:06:16;;;;;;;4.43;1.70;;;21.80;62.30;;;;;;3152999;28;20048;-72
2021/06/24 03:07:47;;;;;;;5.20;1.85;;;21.80;62.20;;;;;;3158131;28;20048;-73
2021/06/24 03:09:19;;;;;;;4.53;1.88;;;21.80;62.20;;;;;;3159609;28;20062;-73
2021/06/24 03:10:52;;;;;;;4.53;1.52;;;21.80;62.20;;;;;;3157611;28;20051;-73
2021/06/24 03:12:23;;;;;;;;;;;21.80;62.80;;;;;;3147789;28;20053;-73
2021/06/24 03:13:55;;;;;;;4.15;1.52;;;21.80;62.10;;;;;;3147736;28;20289;-73
2021/06/24 03:15:27;;;;;;;3.97;1.83;;;21.80;62.20;;;;;;3149907;28;20047;-73
2021/06/24 03:16:58;;;;;;;2.88;1.80;;;21.80;62.10;;;;;;3159993;28;20052;-73
2021/06/24 03:18:30;;;;;;;5.45;2.25;;;21.80;62.20;;;;;;3147546;28;20040;-73
2021/06/24 03:20:01;;;;;;;3.20;1.85;;;21.80;62.20;;;;;;3147309;28;20052;-73
2021/06/24 03:21:33;;;;;;;3.97;1.80;;;21.80;62.40;;;;;;3146943;28;20051;-73
2021/06/24 03:23:05;;;;;;;3.65;1.77;;;21.80;62.40;;;;;;3154160;28;20048;-73
2021/06/24 03:24:36;;;;;;;6.25;1.92;;;21.80;62.40;;;;;;3158757;28;20408;-73
2021/06/24 03:26:09;;;;;;;4.15;1.83;;;21.80;62.60;;;;;;3157482;28;20044;-73
2021/06/24 03:27:41;;;;;;;;;;;21.80;62.40;;;;;;3159959;28;20597;-73
2021/06/24 03:29:11;;;;;;;7.35;1.90;;;21.80;62.40;;;;;;3158076;28;19920;-72
2021/06/24 03:30:43;;;;;;;2.47;1.80;;;21.80;62.40;;;;;;3152859;28;20047;-72
2021/06/24 03:32:15;;;;;;;6.13;1.70;;;21.80;62.40;;;;;;3148367;28;20500;-72
2021/06/24 03:33:46;;;;;;;4.25;1.80;;;21.80;62.30;;;;;;3158084;28;20048;-72
2021/06/24 03:35:18;;;;;;;3.92;1.95;;;21.80;62.30;;;;;;3150946;28;20098;-73
2021/06/24 03:36:50;;;;;;;4.85;1.88;;;21.80;62.20;;;;;;3158170;28;20055;-73
2021/06/24 03:38:20;;;;;;;3.47;1.95;;;21.80;62.20;;;;;;3159065;28;20446;-72
2021/06/24 03:39:52;;;;;;;4.55;2.08;;;21.80;62.10;;;;;;3155794;28;20065;-72
2021/06/24 03:41:25;;;;;;;5.25;1.63;;;21.80;62.20;;;;;;3159027;28;20063;-72
2021/06/24 03:42:57;;;;;;;2.67;1.60;;;21.80;62.10;;;;;;3159462;28;20099;-72
2021/06/24 03:44:29;;;;;;;5.80;1.88;;;21.80;62.10;;;;;;3158622;28;20044;-72
2021/06/24 03:46:00;;;;;;;6.35;2.00;;;21.80;62.00;;;;;;3157373;28;20051;-72
2021/06/24 03:47:31;;;;;;;4.07;1.83;;;21.80;62.00;;;;;;3159259;28;20052;-72
2021/06/24 03:49:03;;;;;;;5.75;2.05;;;21.80;62.00;;;;;;3157750;28;20499;-72
2021/06/24 03:50:34;;;;;;;3.00;1.80;;;21.80;61.80;;;;;;3159347;28;20091;-72
2021/06/24 03:52:07;;;;;;;4.93;1.98;;;21.80;61.90;;;;;;3159387;28;20052;-72
2021/06/24 03:53:38;;;;;;;4.35;1.70;;;21.80;62.50;;;;;;3151273;28;20044;-73
2021/06/24 03:55:11;;;;;;;3.45;2.00;;;21.80;61.90;;;;;;3154836;28;20051;-72
2021/06/24 03:56:44;;;;;;;4.47;1.77;;;21.80;62.00;;;;;;3158884;28;20553;-72
2021/06/24 03:58:15;;;;;;;3.95;1.60;;;21.80;62.00;;;;;;3159293;28;20615;-73
2021/06/24 03:59:46;;;;;;;4.53;1.73;;;21.80;62.10;;;;;;3159450;28;20077;-72
2021/06/24 04:01:18;;;;;;;3.35;2.00;;;21.80;62.10;;;;;;3159250;28;20070;-72
2021/06/24 04:02:49;;;;;;;5.18;1.80;;;21.80;62.00;;;;;;3159529;28;20512;-73
2021/06/24 04:04:20;;;;;;;3.13;1.85;;;21.80;62.00;;;;;;3159426;28;20052;-72
2021/06/24 04:05:51;;;;;;;3.78;1.55;;;21.80;62.10;;;;;;3158859;28;20044;-72
2021/06/24 04:07:23;;;;;;;3.40;1.63;;;21.80;62.00;;;;;;3158821;28;20396;-72
2021/06/24 04:08:54;;;;;;;3.60;1.63;;;21.80;62.00;;;;;;3159527;28;20044;-72
2021/06/24 04:10:26;;;;;;;4.07;1.90;;;21.80;61.90;;;;;;3159373;28;20055;-72
2021/06/24 04:11:59;;;;;;;2.22;1.55;;;21.80;61.90;;;;;;3159316;28;20052;-73
2021/06/24 04:13:31;;;;;;;3.63;1.60;;;21.80;61.90;;;;;;3159247;28;20047;-72
2021/06/24 04:15:03;;;;;;;2.05;1.40;;;21.80;61.90;;;;;;3159237;28;20048;-73
2021/06/24 04:16:34;;;;;;;10.65;1.95;;;21.80;61.90;;;;;;3158769;28;20047;-73
2021/06/24 04:18:07;;;;;;;4.53;1.70;;;21.80;61.90;;;;;;3159044;28;20675;-73
2021/06/24 04:19:38;;;;;;;7.43;1.75;;;21.80;61.90;;;;;;3159129;28;20051;-73
2021/06/24 04:21:10;;;;;;;3.05;1.60;;;21.80;62.10;;;;;;3159030;28;20059;-73
2021/06/24 04:22:41;;;;;;;2.67;1.60;;;21.80;62.00;;;;;;3158793;28;20421;-73
2021/06/24 04:24:12;;;;;;;3.35;1.80;;;21.80;62.00;;;;;;3159203;28;20048;-73
2021/06/24 04:25:43;;;;;;;6.22;1.90;;;21.80;61.90;;;;;;3158593;28;20052;-73
2021/06/24 04:27:16;;;;;;;3.08;1.50;;;21.80;62.00;;;;;;3159095;28;20404;-73
2021/06/24 04:28:47;;;;;;;;;;;21.80;61.90;;;;;;3159730;28;20290;-73
2021/06/24 04:30:19;;;;;;;3.72;1.60;;;21.80;62.10;;;;;;3158849;28;19923;-73
2021/06/24 04:31:51;;;;;;;2.67;1.63;;;21.80;62.00;;;;;;3158996;28;20511;-73
2021/06/24 04:33:23;;;;;;;3.05;1.70;;;21.80;62.10;;;;;;3159279;28;20044;-72
2021/06/24 04:34:53;;;;;;;3.20;1.50;;;21.70;62.00;;;;;;3159269;28;20059;-73
2021/06/24 04:36:25;;;;;;;4.75;1.65;;;21.70;62.00;;;;;;3158565;28;20048;-73
2021/06/24 04:37:59;;;;;;;5.38;1.80;;;21.80;61.80;;;;;;3158991;28;20055;-72
2021/06/24 04:39:30;;;;;;;3.75;1.80;;;21.70;62.00;;;;;;3158907;28;20051;-73
2021/06/24 04:41:02;;;;;;;2.72;1.58;;;21.70;61.80;;;;;;3158679;28;20052;-73
2021/06/24 04:42:34;;;;;;;4.57;1.70;;;21.70;61.90;;;;;;3158822;28;20048;-73
2021/06/24 04:44:06;;;;;;;2.13;1.50;;;21.70;61.90;;;;;;3159217;28;20056;-73
2021/06/24 04:45:38;;;;;;;4.47;1.60;;;21.70;61.80;;;;;;3158848;28;20055;-73
2021/06/24 04:47:09;;;;;;;3.10;1.60;;;21.70;62.10;;;;;;3158536;28;20051;-73
2021/06/24 04:48:41;;;;;;;2.85;1.50;;;21.70;61.70;;;;;;3160769;28;20048;-73
2021/06/24 04:50:13;;;;;;;5.32;1.73;;;21.70;61.80;;;;;;3161192;28;20519;-72
2021/06/24 04:51:44;;;;;;;3.45;1.30;;;21.70;61.80;;;;;;3161238;28;20043;-72
2021/06/24 04:53:16;;;;;;;3.97;1.90;;;21.70;62.00;;;;;;3160946;28;20047;-72
2021/06/24 04:54:47;;;;;;;4.88;1.70;;;21.70;62.10;;;;;;3161118;28;20052;-73
2021/06/24 04:56:18;;;;;;;4.28;1.58;;;21.70;61.90;;;;;;3160903;28;20044;-72
2021/06/24 04:57:51;;;;;;;5.80;1.50;;;21.70;61.80;;;;;;3161176;28;20052;-72
2021/06/24 04:59:23;;;;;;;;;;;21.70;61.70;;;;;;3161670;28;20052;-73
2021/06/24 05:00:57;;;;;;;3.22;1.60;;;21.80;61.80;;;;;;3160950;28;19978;-73
2021/06/24 05:02:29;;;;;;;2.47;1.52;;;21.70;61.80;;;;;;3161189;28;20048;-72
2021/06/24 05:04:00;;;;;;;3.17;1.70;;;21.70;61.80;;;;;;3160962;28;20059;-73
2021/06/24 05:05:31;;;;;;;5.80;1.60;;;21.70;61.50;;;;;;3160428;28;20044;-72
2021/06/24 05:07:07;;;;;;;3.92;1.60;;;21.70;61.70;;;;;;3160921;28;20512;-72
2021/06/24 05:08:39;;;;;;;5.75;1.90;;;21.70;62.20;;;;;;3161231;28;20048;-73
2021/06/24 05:10:12;;;;;;;5.40;1.92;;;21.80;62.30;;;;;;3161088;28;20385;-72
2021/06/24 05:11:43;;;;;;;;;;;21.80;62.20;;;;;;3161472;28;20048;-73
2021/06/24 05:13:17;;;;;;;8.27;2.15;;;21.80;62.20;;;;;;3160253;28;19930;-72
2021/06/24 05:14:48;;;;;;;5.07;1.73;;;21.80;61.90;;;;;;3160454;28;20306;-73
2021/06/24 05:16:20;;;;;;;6.63;2.00;;;21.80;62.40;;;;;;3160577;28;20080;-74
2021/06/24 05:17:52;;;;;;;17.15;2.38;;;21.80;62.30;;;;;;3159840;28;20052;-73
2021/06/24 05:19:23;;;;;;;9.10;1.92;;;21.90;62.30;;;;;;3159984;28;20052;-75
2021/06/24 05:20:55;;;;;;;4.85;2.05;;;21.90;62.30;;;;;;3160829;28;20569;-73
2021/06/24 05:22:27;;;;;;;6.13;1.63;;;21.80;62.10;;;;;;3160576;28;20059;-74
2021/06/24 05:23:58;;;;;;;6.43;1.40;;;21.90;62.10;;;;;;3160748;28;20052;-74
2021/06/24 05:25:30;;;;;;;8.57;1.90;;;21.90;62.10;;;;;;3160277;28;20048;-74
2021/06/24 05:27:02;;;;;;;7.18;2.03;;;21.80;62.00;;;;;;3160239;28;20047;-74
2021/06/24 05:28:35;;;;;;;6.18;1.65;;;21.80;62.00;;;;;;3160471;28;20112;-74
2021/06/24 05:30:07;;;;;;;;;;;21.80;61.80;;;;;;3160997;28;20058;-74
2021/06/24 05:31:39;;;;;;;7.05;1.60;;;21.80;62.00;;;;;;3160500;28;19919;-74
2021/06/24 05:33:11;;;;;;;4.03;1.50;;;21.80;62.00;;;;;;3160027;28;20051;-74
2021/06/24 05:34:42;;;;;;;10.90;2.42;;;21.80;61.80;;;;;;3160566;28;20052;-74
2021/06/24 05:36:14;;;;;;;4.93;1.90;;;21.80;61.70;;;;;;3159973;28;20051;-74
2021/06/24 05:37:45;;;;;;;6.68;1.73;;;21.80;61.70;;;;;;3150956;28;20051;-73
2021/06/24 05:39:17;;;;;;;6.50;2.05;;;21.70;61.80;;;;;;3157410;28;20048;-74
2021/06/24 05:40:50;;;;;;;5.28;1.65;;;21.70;61.60;;;;;;3160039;28;20044;-73
2021/06/24 05:42:20;;;;;;;9.02;1.80;;;21.60;61.10;;;;;;3160428;28;20143;-73
2021/06/24 05:43:53;;;;;;;2.38;1.50;;;21.50;61.20;;;;;;3158807;28;20047;-74
2021/06/24 05:45:28;;;;;;;5.07;1.95;;;21.50;61.20;;;;;;3159818;28;20055;-73
2021/06/24 05:47:00;;;;;;;5.40;2.00;;;21.50;61.20;;;;;;3149016;28;20383;-73
2021/06/24 05:48:33;;;;;;;5.75;2.03;;;21.40;61.10;;;;;;3147434;28;20477;-73
2021/06/24 05:50:05;;;;;;;3.92;1.70;;;21.40;61.10;;;;;;3157345;28;20091;-74
2021/06/24 05:51:36;;;;;;;3.47;1.85;;;21.40;61.10;;;;;;3158510;28;20066;-74
2021/06/24 05:53:07;;;;;;;3.63;1.88;;;21.40;61.10;;;;;;3159326;28;20048;-73
2021/06/24 05:54:39;;;;;;;4.38;1.73;;;21.40;61.10;;;;;;3151531;28;20045;-74
2021/06/24 05:56:10;;;;;;;8.98;2.20;;;21.30;61.00;;;;;;3156954;28;20602;-74
2021/06/24 05:57:41;;;;;;;3.20;1.75;;;21.30;61.10;;;;;;3160296;28;20044;-74
2021/06/24 05:59:14;;;;;;;3.75;1.80;;;21.30;61.10;;;;;;3160184;28;20048;-74
2021/06/24 06:00:45;;;;;;;;;;;21.30;61.00;;;;;;3160726;28;20090;-74
2021/06/24 06:02:17;;;;;;;2.97;2.10;;;21.30;61.00;;;;;;3160068;28;19916;-73
2021/06/24 06:03:48;;;;;;;5.68;1.83;;;21.30;61.00;;;;;;3160546;28;20047;-73
2021/06/24 06:05:20;;;;;;;3.20;1.80;;;21.30;61.10;;;;;;3159495;28;20063;-72
2021/06/24 06:06:52;;;;;;;5.88;1.88;;;21.30;61.00;;;;;;3160100;28;20578;-73
2021/06/24 06:08:23;;;;;;;7.35;1.60;;;21.30;61.50;;;;;;3160115;28;20515;-73
2021/06/24 06:09:54;;;;;;;4.32;1.60;;;21.30;61.20;;;;;;3159519;28;20176;-73
2021/06/24 06:11:26;;;;;;;5.65;1.58;;;21.30;61.00;;;;;;3159590;28;20181;-73
2021/06/24 06:12:57;;;;;;;6.75;1.80;;;21.30;61.00;;;;;;3160458;28;20055;-73
2021/06/24 06:14:30;;;;;;;3.38;1.50;;;21.30;61.00;;;;;;3159989;28;20405;-73
2021/06/24 06:16:02;;;;;;;4.32;1.80;;;21.30;61.00;;;;;;3159425;28;20420;-73
2021/06/24 06:17:33;;;;;;;4.22;1.98;;;21.30;61.00;;;;;;3160148;28;20059;-73
2021/06/24 06:19:05;;;;;;;9.00;1.80;;;21.30;61.30;;;;;;3159950;28;20485;-73
2021/06/24 06:20:36;;;;;;;4.70;1.70;;;21.30;61.00;;;;;;3159613;28;20489;-73
2021/06/24 06:22:08;;;;;;;6.93;2.00;;;21.20;61.00;;;;;;3159520;28;20143;-73
2021/06/24 06:23:39;;;;;;;5.95;1.80;;;21.20;60.90;;;;;;3159966;28;20051;-73
2021/06/24 06:25:13;;;;;;;6.95;1.95;;;21.20;61.00;;;;;;3159746;28;20512;-73
2021/06/24 06:26:45;;;;;;;4.60;1.73;;;21.20;61.00;;;;;;3159619;28;20051;-73
2021/06/24 06:28:16;;;;;;;4.85;1.90;;;21.20;61.00;;;;;;3159442;28;20052;-73
2021/06/24 06:29:49;;;;;;;4.45;1.90;;;21.20;61.00;;;;;;3159734;28;20046;-73
2021/06/24 06:31:20;;;;;;;;;;;21.20;60.90;;;;;;3160171;28;20516;-73
2021/06/24 06:32:52;;;;;;;4.82;2.08;;;21.20;60.90;;;;;;3159647;28;19919;-73
2021/06/24 06:34:23;;;;;;;6.57;1.98;;;21.20;61.00;;;;;;3159724;28;20044;-73
2021/06/24 06:35:54;;;;;;;3.22;1.90;;;21.20;61.00;;;;;;3159473;28;20048;-73
2021/06/24 06:37:26;;;;;;;6.60;1.75;;;21.20;61.00;;;;;;3159295;28;20485;-73
2021/06/24 06:38:57;;;;;;;3.53;1.70;;;21.20;61.00;;;;;;3159611;28;20059;-73
2021/06/24 06:40:28;;;;;;;4.93;2.03;;;21.20;61.10;;;;;;3159778;28;20055;-73
2021/06/24 06:42:00;;;;;;;4.53;2.03;;;21.20;61.00;;;;;;3159288;28;20128;-73
2021/06/24 06:43:31;;;;;;;3.92;2.00;;;21.20;61.00;;;;;;3159364;28;20048;-73
2021/06/24 06:45:06;;;;;;;4.53;1.70;;;21.10;60.90;;;;;;3159594;28;20305;-73
2021/06/24 06:46:37;;;;;;;5.82;2.00;;;21.20;60.90;;;;;;3159527;28;20801;-73
2021/06/24 06:48:08;;;;;;;3.20;1.52;;;21.20;61.00;;;;;;3159371;28;20044;-73
2021/06/24 06:49:40;;;;;;;4.15;1.83;;;21.10;60.90;;;;;;3159298;28;20486;-73
2021/06/24 06:51:12;;;;;;;5.32;1.75;;;21.20;60.90;;;;;;3159526;28;20109;-73
2021/06/24 06:52:43;;;;;;;5.60;2.15;;;21.10;61.00;;;;;;3159326;28;20048;-73
2021/06/24 06:54:14;;;;;;;5.95;2.05;;;21.10;60.90;;;;;;3159507;28;20108;-73
2021/06/24 06:55:46;;;;;;;5.47;2.33;;;21.10;60.90;;;;;;3159050;28;20059;-73
2021/06/24 06:57:18;;;;;;;3.15;1.77;;;21.10;61.10;;;;;;3159417;28;20051;-73
2021/06/24 06:58:50;;;;;;;4.13;1.83;;;21.10;60.90;;;;;;3159766;28;20048;-73
2021/06/24 07:00:24;;;;;;;4.40;1.98;;;21.10;60.90;;;;;;3159408;28;20064;-73
2021/06/24 07:01:55;;;;;;;5.97;2.10;;;21.10;61.20;;;;;;3159465;28;20058;-73
2021/06/24 07:03:27;;;;;;;4.13;1.85;;;21.10;61.20;;;;;;3159916;28;20318;-73
2021/06/24 07:04:58;;;;;;;2.95;2.20;;;21.10;60.90;;;;;;3159238;28;20055;-74
2021/06/24 07:06:30;;;;;;;4.20;2.00;;;21.10;61.10;;;;;;3157377;28;20055;-73
2021/06/24 07:08:02;;;;;;;3.45;2.30;;;21.10;60.90;;;;;;3156875;28;20052;-73
2021/06/24 07:09:32;;;;;;;3.53;2.00;;;21.10;61.00;;;;;;3156793;28;20047;-73
2021/06/24 07:11:04;;;;;;;3.92;2.28;;;21.10;61.20;;;;;;3147762;28;20048;-73
2021/06/24 07:12:35;;;;;;;3.92;2.17;;;21.10;60.90;;;;;;3157704;28;20048;-73
2021/06/24 07:14:07;;;;;;;3.55;2.00;;;21.10;61.10;;;;;;3159564;28;20056;-73
2021/06/24 07:15:40;;;;;;;2.22;1.80;;;21.10;60.90;;;;;;3154967;28;20051;-73
2021/06/24 07:17:12;;;;;;;;;;;21.10;60.90;;;;;;3155384;28;20052;-74
2021/06/24 07:18:43;;;;;;;2.42;1.70;;;21.10;60.90;;;;;;3157989;28;19924;-73
2021/06/24 07:20:16;;;;;;;4.25;1.80;;;21.10;61.10;;;;;;3146821;28;20045;-73
2021/06/24 07:21:48;;;;;;;;;;;21.10;61.10;;;;;;3149330;28;20051;-73
2021/06/24 07:23:20;;;;;;;3.80;1.60;;;21.10;60.90;;;;;;3157277;28;19959;-73
2021/06/24 07:24:51;;;;;;;2.65;1.65;;;21.10;61.30;;;;;;3157656;28;20459;-73
2021/06/24 07:26:22;;;;;;;5.07;1.60;;;21.10;60.90;;;;;;3147608;28;20437;-73
2021/06/24 07:27:53;;;;;;;3.85;1.80;;;21.10;60.90;;;;;;3146875;28;20045;-73
2021/06/24 07:29:24;;;;;;;4.35;1.90;;;21.20;61.00;;;;;;3147843;28;20054;-73
2021/06/24 07:30:57;;;;;;;2.88;1.77;;;21.20;61.00;;;;;;3157687;28;20051;-73
2021/06/24 07:32:28;;;;;;;;;;;21.10;60.90;;;;;;3152206;28;20059;-73
2021/06/24 07:34:00;;;;;;;3.78;2.00;;;21.20;61.00;;;;;;3158770;28;19923;-73
2021/06/24 07:35:31;;;;;;;3.40;1.73;;;21.20;61.20;;;;;;3158462;28;20048;-73
2021/06/24 07:37:04;;;;;;;3.20;1.67;;;21.20;60.90;;;;;;3149229;28;20477;-74
2021/06/24 07:38:35;;;;;;;2.67;1.80;;;21.10;61.00;;;;;;3151115;28;20048;-73
2021/06/24 07:40:08;;;;;;;4.10;1.80;;;21.20;61.00;;;;;;3150042;28;20052;-73
2021/06/24 07:43:19;;;;;;;2.85;1.95;;;21.10;60.90;;;;;;3149527;28;19927;-77
2021/06/24 07:44:51;;;;;;;2.95;1.85;;;21.20;60.80;;;;;;3159042;28;20047;-77
2021/06/24 07:46:24;;;;;;;4.13;1.83;;;21.20;61.00;;;;;;3158489;28;20048;-77
2021/06/24 07:47:57;;;;;;;3.38;1.60;;;21.10;61.10;;;;;;3152149;28;20404;-77
2021/06/24 07:49:28;;;;;;;4.28;1.63;;;21.10;61.20;;;;;;3147632;28;20052;-77
2021/06/24 07:51:01;;;;;;;6.25;1.92;;;21.20;61.30;;;;;;3148429;28;20047;-77
2021/06/24 07:52:32;;;;;;;6.97;1.88;;;21.20;61.30;;;;;;3157850;28;20090;-78
2021/06/24 07:54:06;;;;;;;9.75;2.00;;;21.30;61.90;;;;;;3153114;28;20055;-77
2021/06/24 07:55:38;;;;;;;18.20;2.63;;;21.40;62.10;;;;;;3147334;28;20049;-77
2021/06/24 07:57:10;;;;;;;10.73;1.83;;;21.50;62.70;;;;;;3148032;28;20490;-77
2021/06/24 07:58:40;;;;;;;17.63;2.25;;;21.60;61.70;;;;;;3152309;28;20064;-77
2021/06/24 08:00:13;;;;;;;13.00;2.67;;;21.60;63.10;;;;;;3155911;28;20422;-77
2021/06/24 08:01:45;;;;;;;13.63;2.30;;;21.70;63.30;;;;;;3159853;28;20097;-77